Time;durP1;ratioP1;P1;durP2;ratioP2;P2;SDS_P1;SDS_P2;PMS_P1;PMS_P2;Temp;Humidity;BMP_temperature;BMP_pressure;BME280_temperature;BME280_humidity;BME280_pressure;Samples;Min_cycle;Max_cycle;Signal;HPM_P1;HPM_P2
2023/01/04 00:01:23;;;;;;;13.50;4.33;;;6.10;99.90;;;;;;6063566;23;20394;-59
2023/01/04 00:03:50;;;;;;;9.33;5.23;;;6.00;99.90;;;;;;6063620;23;20413;-59
2023/01/04 00:06:18;;;;;;;5.77;4.50;;;6.00;99.90;;;;;;6063207;23;20412;-58
2023/01/04 00:08:45;;;;;;;6.57;3.90;;;6.00;99.90;;;;;;6062454;23;20430;-58
2023/01/04 00:11:14;;;;;;;8.00;4.60;;;6.00;99.90;;;;;;6063716;23;20442;-59
2023/01/04 00:13:42;;;;;;;7.33;4.33;;;6.00;99.90;;;;;;6064775;23;20413;-61
2023/01/04 00:16:13;;;;;;;9.57;5.20;;;6.00;99.90;;;;;;6064516;23;20413;-58
2023/01/04 00:18:40;;;;;;;6.20;3.90;;;6.00;99.90;;;;;;6064791;23;20394;-60
2023/01/04 00:21:08;;;;;;;5.10;3.70;;;6.10;99.90;;;;;;6064416;23;20404;-57
2023/01/04 00:23:38;;;;;;;7.30;3.87;;;6.00;99.90;;;;;;6065267;23;20408;-58
2023/01/04 00:26:08;;;;;;;5.73;4.33;;;6.00;99.90;;;;;;6064474;23;20441;-58
2023/01/04 00:28:35;;;;;;;4.70;3.93;;;6.00;99.90;;;;;;6064548;23;20460;-59
2023/01/04 00:31:08;;;;;;;6.80;4.90;;;6.00;99.90;;;;;;6064923;23;20425;-59
2023/01/04 00:33:35;;;;;;;11.93;4.73;;;6.00;99.90;;;;;;6064624;23;20397;-57
2023/01/04 00:36:04;;;;;;;6.93;5.40;;;6.00;99.90;;;;;;6065132;23;20436;-57
2023/01/04 00:38:34;;;;;;;16.37;5.20;;;6.00;99.90;;;;;;6064730;23;20401;-58
2023/01/04 00:41:02;;;;;;;6.33;4.80;;;6.00;99.90;;;;;;6064371;23;20427;-60
2023/01/04 00:43:29;;;;;;;9.30;4.03;;;5.90;99.90;;;;;;6064834;23;20397;-59
2023/01/04 00:45:56;;;;;;;6.73;4.03;;;5.90;99.90;;;;;;6065754;23;20432;-59
2023/01/04 00:48:25;;;;;;;4.77;4.27;;;5.90;99.90;;;;;;6066177;23;20448;-60
2023/01/04 00:50:52;;;;;;;5.20;4.23;;;5.80;99.90;;;;;;6066150;23;20493;-59
2023/01/04 00:53:19;;;;;;;9.40;5.40;;;5.80;99.90;;;;;;6065062;23;20876;-56
2023/01/04 00:55:46;;;;;;;9.37;5.40;;;5.80;99.90;;;;;;6065842;23;20417;-59
2023/01/04 00:58:16;;;;;;;15.03;4.90;;;5.70;99.90;;;;;;6065633;23;20400;-56
2023/01/04 01:00:43;;;;;;;11.60;5.37;;;5.70;99.90;;;;;;6064714;23;20416;-56
2023/01/04 01:03:10;;;;;;;9.93;4.67;;;5.70;99.90;;;;;;6064685;23;20404;-59
2023/01/04 01:05:38;;;;;;;5.30;4.17;;;5.70;99.90;;;;;;6064133;23;20397;-56
2023/01/04 01:10:46;;;;;;;4.57;3.83;;;5.60;99.90;;;;;;6064728;23;20401;-59
2023/01/04 01:13:13;;;;;;;6.70;5.27;;;5.60;99.90;;;;;;6064735;23;20409;-59
2023/01/04 01:15:40;;;;;;;9.17;4.40;;;5.70;99.90;;;;;;6064997;23;20405;-56
2023/01/04 01:18:07;;;;;;;6.43;3.80;;;5.70;99.90;;;;;;6064271;23;20402;-53
2023/01/04 01:20:34;;;;;;;5.90;3.90;;;5.70;99.90;;;;;;6058755;23;20416;-58
2023/01/04 01:23:02;;;;;;;6.23;4.00;;;5.70;99.90;;;;;;6063837;23;20437;-56
2023/01/04 01:25:29;;;;;;;7.70;4.00;;;5.70;99.90;;;;;;6063432;23;20406;-55
2023/01/04 01:27:56;;;;;;;3.87;3.50;;;5.70;99.90;;;;;;6052203;23;20445;-57
2023/01/04 01:30:23;;;;;;;5.47;4.23;;;5.70;99.90;;;;;;6064488;23;20415;-58
2023/01/04 01:32:50;;;;;;;7.03;4.17;;;5.60;99.90;;;;;;6059083;23;20440;-59
2023/01/04 01:35:17;;;;;;;9.70;4.60;;;5.70;99.90;;;;;;6064357;23;20402;-57
2023/01/04 01:37:44;;;;;;;5.47;3.73;;;5.70;99.90;;;;;;6048706;23;20468;-61
2023/01/04 01:40:12;;;;;;;7.70;3.80;;;5.70;99.90;;;;;;6059202;23;20390;-59
2023/01/04 01:42:40;;;;;;;8.20;3.20;;;5.60;99.90;;;;;;6083033;23;20444;-59
2023/01/04 01:45:42;;;;;;;7.33;3.93;;;5.90;99.90;;;;;;6094463;23;20475;-61
2023/01/04 01:48:14;;;;;;;3.57;2.97;;;5.10;99.90;;;;;;6087485;23;20451;-58
2023/01/04 01:50:47;;;;;;;4.23;3.20;;;5.50;99.90;;;;;;6094430;23;20389;-59
2023/01/04 01:53:15;;;;;;;3.80;2.70;;;5.50;99.90;;;;;;6092973;23;20416;-57
2023/01/04 01:55:44;;;;;;;6.20;4.20;;;5.50;99.90;;;;;;6083967;23;20421;-59
2023/01/04 01:58:18;;;;;;;5.07;4.20;;;5.50;99.90;;;;;;6093158;23;20421;-58
2023/01/04 02:00:45;;;;;;;8.40;4.50;;;5.50;99.90;;;;;;6092399;23;20403;-61
2023/01/04 02:03:18;;;;;;;5.40;3.37;;;5.50;99.90;;;;;;6093517;23;20396;-60
2023/01/04 02:05:46;;;;;;;5.53;3.70;;;5.50;99.90;;;;;;6091888;23;20396;-58
2023/01/04 02:08:18;;;;;;;7.77;3.70;;;5.50;99.90;;;;;;6086157;23;20428;-61
2023/01/04 02:10:47;;;;;;;7.37;4.13;;;5.50;99.90;;;;;;6093264;23;20393;-62
2023/01/04 02:13:22;;;;;;;4.77;2.97;;;5.50;99.90;;;;;;6093050;23;20404;-61
2023/01/04 02:16:01;;;;;;;9.00;3.70;;;5.40;99.90;;;;;;6092867;23;20389;-57
2023/01/04 02:18:38;;;;;;;4.60;3.60;;;5.40;99.90;;;;;;6093429;23;20385;-58
2023/01/04 02:21:10;;;;;;;7.70;4.20;;;5.40;99.90;;;;;;6092813;23;20401;-55
2023/01/04 02:24:06;;;;;;;5.60;3.40;;;5.40;99.90;;;;;;6093593;23;20396;-60
2023/01/04 02:27:00;;;;;;;8.40;4.40;;;5.40;99.90;;;;;;6092888;23;20388;-58
2023/01/04 02:29:56;;;;;;;3.90;3.40;;;5.40;99.90;;;;;;6083970;23;20496;-58
2023/01/04 02:32:31;;;;;;;9.23;3.67;;;5.30;99.90;;;;;;6084156;23;20388;-62
2023/01/04 02:35:04;;;;;;;4.87;3.30;;;5.40;99.90;;;;;;6093871;23;20435;-63
2023/01/04 02:37:40;;;;;;;7.83;4.60;;;5.30;99.90;;;;;;6088653;23;20392;-57
2023/01/04 02:40:16;;;;;;;6.73;4.60;;;5.30;99.90;;;;;;6084925;23;20431;-53
2023/01/04 02:45:41;;;;;;;7.53;4.60;;;5.40;99.90;;;;;;6092148;23;20485;-59
2023/01/04 02:50:56;;;;;;;8.17;4.30;;;5.30;99.90;;;;;;6093430;23;20445;-59
2023/01/04 02:53:27;;;;;;;4.10;3.70;;;5.30;99.90;;;;;;6093059;23;20412;-59
2023/01/04 02:56:07;;;;;;;6.93;3.80;;;5.40;99.90;;;;;;6091307;23;20471;-58
2023/01/04 02:58:51;;;;;;;4.67;3.60;;;5.40;99.90;;;;;;6092109;23;20384;-58
2023/01/04 03:07:25;;;;;;;5.97;3.90;;;5.30;99.90;;;;;;6080654;23;20408;-59
2023/01/04 03:10:00;;;;;;;5.23;3.47;;;5.30;99.90;;;;;;6091796;23;20392;-58
2023/01/04 03:12:31;;;;;;;5.67;3.80;;;5.30;99.90;;;;;;6085524;23;20840;-58
2023/01/04 03:15:01;;;;;;;4.60;2.93;;;5.30;99.90;;;;;;6088634;23;20389;-59
2023/01/04 03:17:35;;;;;;;7.87;4.40;;;5.30;99.90;;;;;;6092026;23;20759;-57
2023/01/04 03:20:07;;;;;;;5.80;4.30;;;5.40;99.90;;;;;;6091744;23;20400;-55
2023/01/04 03:36:46;;;;;;;5.37;3.70;;;5.30;99.90;;;;;;6092784;23;20523;-60
2023/01/04 03:50:51;;;;;;;6.03;3.77;;;5.20;99.90;;;;;;6092229;23;20421;-60
2023/01/04 03:53:20;;;;;;;11.33;3.97;;;5.20;99.90;;;;;;6091433;23;20376;-56
2023/01/04 03:55:48;;;;;;;5.93;3.87;;;5.20;99.90;;;;;;6090770;23;20423;-58
2023/01/04 03:58:15;;;;;;;5.70;3.57;;;5.20;99.90;;;;;;6090988;23;20494;-60
2023/01/04 04:00:42;;;;;;;4.70;3.23;;;5.20;99.90;;;;;;6092379;23;20400;-59
2023/01/04 04:03:11;;;;;;;7.90;4.57;;;5.10;99.90;;;;;;6091821;23;20439;-62
2023/01/04 04:08:28;;;;;;;4.63;3.80;;;5.10;99.90;;;;;;6090522;23;20498;-59
2023/01/04 04:10:57;;;;;;;5.23;3.47;;;5.10;99.90;;;;;;6089692;23;20474;-58
2023/01/04 04:13:24;;;;;;;16.00;4.63;;;5.00;99.90;;;;;;6090146;23;20600;-58
2023/01/04 04:15:53;;;;;;;3.83;3.40;;;5.10;99.90;;;;;;6090933;23;20468;-58
2023/01/04 04:18:20;;;;;;;4.70;3.33;;;5.10;99.90;;;;;;6091106;23;20441;-58
2023/01/04 04:20:46;;;;;;;7.53;3.23;;;5.00;99.90;;;;;;6091535;23;20389;-59
2023/01/04 04:23:13;;;;;;;5.73;3.63;;;5.00;99.90;;;;;;6091791;23;20388;-58
2023/01/04 04:25:41;;;;;;;4.70;4.03;;;5.00;99.90;;;;;;6092310;23;20412;-61
2023/01/04 04:28:08;;;;;;;4.70;3.63;;;5.00;99.90;;;;;;6092071;23;20478;-58
2023/01/04 04:30:36;;;;;;;5.60;3.10;;;5.00;99.90;;;;;;6092483;23;20425;-57
2023/01/04 04:33:06;;;;;;;7.90;4.30;;;5.00;99.90;;;;;;6092890;23;20452;-58
2023/01/04 04:35:33;;;;;;;5.80;3.40;;;5.00;99.90;;;;;;6086933;23;20436;-57
2023/01/04 04:37:59;;;;;;;6.07;4.00;;;4.90;99.90;;;;;;6087143;23;20400;-63
2023/01/04 04:43:12;;;;;;;5.07;3.67;;;5.00;99.90;;;;;;6089106;23;20371;-57
2023/01/04 04:45:39;;;;;;;5.07;2.70;;;4.90;99.90;;;;;;6091875;23;20445;-56
2023/01/04 04:48:06;;;;;;;4.50;3.23;;;4.90;99.90;;;;;;6091187;23;20440;-61
2023/01/04 04:50:33;;;;;;;4.50;3.83;;;4.90;99.90;;;;;;6085225;23;20392;-58
2023/01/04 04:53:00;;;;;;;4.57;3.00;;;4.90;99.90;;;;;;6082415;23;20461;-57
2023/01/04 04:55:30;;;;;;;5.83;4.07;;;5.00;99.90;;;;;;6087410;23;20535;-59
2023/01/04 04:57:56;;;;;;;5.73;4.47;;;5.00;99.90;;;;;;6078197;23;20401;-56
2023/01/04 05:00:25;;;;;;;6.17;3.87;;;5.00;99.90;;;;;;6092876;23;20408;-60
2023/01/04 05:02:52;;;;;;;5.13;3.30;;;5.00;99.90;;;;;;6092685;23;20435;-58
2023/01/04 05:05:19;;;;;;;12.10;3.67;;;5.00;99.90;;;;;;6093921;23;20405;-58
2023/01/04 05:07:46;;;;;;;5.20;3.00;;;5.00;99.90;;;;;;6093796;23;20409;-61
2023/01/04 05:10:12;;;;;;;5.97;4.00;;;5.00;99.90;;;;;;6093831;23;20777;-64
2023/01/04 05:15:25;;;;;;;4.87;3.53;;;5.10;99.90;;;;;;6094246;23;20508;-58
2023/01/04 05:17:52;;;;;;;4.27;3.60;;;5.20;99.90;;;;;;6095129;23;20404;-57
2023/01/04 05:20:19;;;;;;;4.50;3.73;;;5.20;99.90;;;;;;6094146;23;20413;-56
2023/01/04 05:22:46;;;;;;;6.90;2.87;;;5.30;99.90;;;;;;6093746;23;20389;-59
2023/01/04 05:25:13;;;;;;;3.40;3.10;;;5.30;99.90;;;;;;6093501;23;20769;-54
2023/01/04 05:27:40;;;;;;;4.27;3.30;;;5.40;99.90;;;;;;6094229;23;20823;-58
2023/01/04 05:32:57;;;;;;;3.23;2.87;;;5.50;99.90;;;;;;6092233;23;20423;-58
2023/01/04 05:35:24;;;;;;;8.57;3.67;;;5.50;99.90;;;;;;6092548;23;20431;-53
2023/01/04 05:37:51;;;;;;;4.90;3.10;;;5.50;99.90;;;;;;6093284;23;20443;-58
2023/01/04 05:40:18;;;;;;;4.93;3.13;;;5.60;99.90;;;;;;6093950;23;20393;-57
2023/01/04 05:42:45;;;;;;;4.53;2.40;;;5.60;99.90;;;;;;6092738;23;20419;-57
2023/01/04 05:45:12;;;;;;;4.67;2.90;;;5.60;99.90;;;;;;6093935;23;20396;-53
2023/01/04 05:47:38;;;;;;;5.67;2.97;;;5.70;99.90;;;;;;6094393;23;20415;-59
2023/01/04 05:50:10;;;;;;;3.83;2.80;;;5.70;99.90;;;;;;6093826;23;20417;-62
2023/01/04 05:52:37;;;;;;;6.63;2.90;;;5.80;99.90;;;;;;6093541;23;20385;-59
2023/01/04 05:55:04;;;;;;;4.30;2.73;;;5.80;99.90;;;;;;6094376;23;20419;-58
2023/01/04 05:57:31;;;;;;;3.77;2.67;;;5.90;99.90;;;;;;6093416;23;20404;-60
2023/01/04 05:59:58;;;;;;;4.67;2.83;;;5.90;99.90;;;;;;6093564;23;20468;-60
2023/01/04 06:02:27;;;;;;;6.73;2.80;;;6.00;99.90;;;;;;6092849;23;20389;-57
2023/01/04 06:04:54;;;;;;;3.07;2.50;;;6.00;99.90;;;;;;6092942;23;20417;-56
2023/01/04 06:07:23;;;;;;;7.17;2.90;;;6.10;99.90;;;;;;6093351;23;20408;-55
2023/01/04 06:09:50;;;;;;;3.70;2.60;;;6.10;99.90;;;;;;6092535;23;20428;-55
2023/01/04 06:12:17;;;;;;;2.23;2.00;;;6.10;99.90;;;;;;6091693;23;20440;-57
2023/01/04 06:14:44;;;;;;;4.03;2.90;;;6.10;99.90;;;;;;6091413;23;20419;-52
2023/01/04 06:17:11;;;;;;;2.97;2.63;;;6.10;99.90;;;;;;6092438;23;20439;-57
2023/01/04 06:19:38;;;;;;;5.43;3.10;;;6.20;99.90;;;;;;6092171;23;20400;-59
2023/01/04 06:22:05;;;;;;;7.07;2.70;;;6.20;99.90;;;;;;6091836;23;20409;-57
2023/01/04 06:24:34;;;;;;;4.93;3.43;;;6.20;99.90;;;;;;6092460;23;20412;-57
2023/01/04 06:27:02;;;;;;;4.30;2.17;;;6.20;99.90;;;;;;6092643;23;20423;-60
2023/01/04 06:29:29;;;;;;;3.40;2.80;;;6.20;99.90;;;;;;6094001;23;20439;-57
2023/01/04 06:31:56;;;;;;;3.37;2.30;;;6.20;99.90;;;;;;6092710;23;20416;-59
2023/01/04 06:34:22;;;;;;;6.17;2.90;;;6.20;99.90;;;;;;6091877;23;20420;-60
2023/01/04 06:36:54;;;;;;;2.63;2.33;;;6.20;99.90;;;;;;6092743;23;20412;-57
2023/01/04 06:39:21;;;;;;;3.10;2.50;;;6.30;99.90;;;;;;6092640;23;20423;-58
2023/01/04 06:41:51;;;;;;;2.97;2.13;;;6.30;99.90;;;;;;6092196;23;20416;-54
2023/01/04 06:44:18;;;;;;;3.30;2.30;;;6.30;99.90;;;;;;6091508;23;20416;-58
2023/01/04 06:46:47;;;;;;;3.30;2.33;;;6.30;99.90;;;;;;6092594;23;20424;-59
2023/01/04 06:49:14;;;;;;;4.23;2.20;;;6.30;99.90;;;;;;6093299;23;20445;-64
2023/01/04 06:51:41;;;;;;;4.67;2.40;;;6.40;99.90;;;;;;6093015;23;20424;-55
2023/01/04 06:54:10;;;;;;;3.87;2.13;;;6.40;99.90;;;;;;6092409;23;20415;-56
2023/01/04 06:56:37;;;;;;;6.33;2.57;;;6.50;99.90;;;;;;6091898;23;20452;-57
2023/01/04 06:59:08;;;;;;;3.00;1.80;;;6.50;99.90;;;;;;6091741;23;20409;-56
2023/01/04 07:01:37;;;;;;;4.80;2.33;;;6.60;99.90;;;;;;6091773;23;20436;-56
2023/01/04 07:04:04;;;;;;;7.63;2.17;;;6.60;99.90;;;;;;6088342;23;20412;-59
2023/01/04 07:06:31;;;;;;;2.70;2.00;;;6.70;99.90;;;;;;6090513;23;20413;-59
2023/01/04 07:09:01;;;;;;;3.57;2.30;;;6.80;99.90;;;;;;6090575;23;20448;-59
2023/01/04 07:11:28;;;;;;;3.00;2.27;;;6.80;99.90;;;;;;6090772;23;20441;-54
2023/01/04 07:13:56;;;;;;;5.60;2.70;;;6.90;99.90;;;;;;6090869;23;20436;-58
2023/01/04 07:16:24;;;;;;;5.03;1.67;;;7.00;99.90;;;;;;6091190;23;20397;-60
2023/01/04 07:19:03;;;;;;;3.73;2.43;;;7.00;99.90;;;;;;6086796;23;20424;-59
2023/01/04 07:21:30;;;;;;;4.00;1.93;;;7.10;99.90;;;;;;6091352;23;20396;-59
2023/01/04 07:23:59;;;;;;;2.90;1.87;;;7.20;99.90;;;;;;6091492;23;20420;-57
2023/01/04 07:26:25;;;;;;;4.33;2.10;;;7.20;99.90;;;;;;6091562;23;20427;-58
2023/01/04 07:31:38;;;;;;;2.40;2.10;;;7.20;99.90;;;;;;6092265;23;20480;-59
2023/01/04 07:34:08;;;;;;;4.50;2.13;;;7.20;99.90;;;;;;6091363;23;20408;-58
2023/01/04 07:36:35;;;;;;;2.70;2.13;;;7.20;99.90;;;;;;6078102;23;20432;-57
2023/01/04 07:39:02;;;;;;;4.50;2.20;;;7.20;99.90;;;;;;6091631;23;20898;-55
2023/01/04 07:41:30;;;;;;;2.00;1.80;;;7.10;99.90;;;;;;6090977;23;20432;-58
2023/01/04 07:43:57;;;;;;;2.77;1.90;;;7.10;99.90;;;;;;6091197;23;20387;-58
2023/01/04 07:46:24;;;;;;;5.33;2.40;;;7.10;99.90;;;;;;6091850;23;20435;-58
2023/01/04 07:48:53;;;;;;;3.23;2.00;;;7.00;99.90;;;;;;6065643;23;20437;-59
2023/01/04 07:51:23;;;;;;;1.90;1.80;;;7.00;99.90;;;;;;6092005;23;20389;-58
2023/01/04 07:53:50;;;;;;;3.13;2.20;;;6.90;99.90;;;;;;6092101;23;20429;-57
2023/01/04 07:56:18;;;;;;;2.63;1.40;;;6.90;99.90;;;;;;6090638;23;20405;-59
2023/01/04 07:58:45;;;;;;;5.10;2.50;;;6.90;99.90;;;;;;6076136;23;20428;-58
2023/01/04 08:01:13;;;;;;;3.60;2.00;;;6.90;99.90;;;;;;6091691;23;20860;-58
2023/01/04 08:03:41;;;;;;;3.50;2.17;;;6.80;99.90;;;;;;6082621;23;20428;-55
2023/01/04 08:06:11;;;;;;;5.20;2.40;;;6.80;99.90;;;;;;6091448;23;20413;-56
2023/01/04 08:08:39;;;;;;;4.00;2.40;;;6.80;99.90;;;;;;6091608;23;20400;-64
2023/01/04 08:11:07;;;;;;;2.90;2.13;;;6.80;99.90;;;;;;6091412;23;20428;-62
2023/01/04 08:13:35;;;;;;;3.60;2.10;;;6.80;99.90;;;;;;6093086;23;20408;-57
2023/01/04 08:16:01;;;;;;;3.00;2.43;;;6.70;99.90;;;;;;6091546;23;20456;-58
2023/01/04 08:18:30;;;;;;;3.17;2.50;;;6.70;99.90;;;;;;6089787;23;20388;-57
2023/01/04 08:21:04;;;;;;;3.33;1.83;;;6.70;99.90;;;;;;6090911;23;20444;-55
2023/01/04 08:23:34;;;;;;;2.30;1.53;;;6.70;99.90;;;;;;6090974;23;20392;-58
2023/01/04 08:26:05;;;;;;;4.73;2.17;;;6.70;99.90;;;;;;6091974;23;20404;-59
2023/01/04 08:28:36;;;;;;;3.40;2.50;;;6.70;99.90;;;;;;6091999;23;20405;-57
2023/01/04 08:31:06;;;;;;;5.67;2.57;;;6.70;99.90;;;;;;6089172;23;20392;-58
2023/01/04 08:33:34;;;;;;;2.03;1.50;;;6.70;99.90;;;;;;6082807;23;20432;-55
2023/01/04 08:36:08;;;;;;;2.50;2.00;;;6.70;99.90;;;;;;6092168;23;20412;-59
2023/01/04 08:38:36;;;;;;;2.10;1.90;;;6.70;99.90;;;;;;6092500;23;20427;-57
2023/01/04 08:41:06;;;;;;;3.40;1.83;;;6.80;99.90;;;;;;6092619;23;20449;-55
2023/01/04 08:43:34;;;;;;;5.77;4.10;;;6.80;99.90;;;;;;6093232;23;20472;-58
2023/01/04 08:46:01;;;;;;;3.00;2.00;;;6.80;99.90;;;;;;6093641;23;20399;-57
2023/01/04 08:48:28;;;;;;;3.00;1.87;;;6.80;99.90;;;;;;6092966;23;20408;-57
2023/01/04 08:50:57;;;;;;;2.13;1.80;;;6.90;99.90;;;;;;6094151;23;20451;-63
2023/01/04 08:53:24;;;;;;;2.20;2.00;;;6.90;99.90;;;;;;6094872;23;20396;-59
2023/01/04 08:55:53;;;;;;;7.87;2.50;;;7.00;99.90;;;;;;6094047;23;20436;-56
2023/01/04 08:58:20;;;;;;;3.67;2.40;;;7.00;99.90;;;;;;6093068;23;20420;-57
2023/01/04 09:00:47;;;;;;;2.40;2.03;;;7.00;99.90;;;;;;6092561;23;20431;-59
2023/01/04 09:03:14;;;;;;;4.60;2.03;;;7.00;99.90;;;;;;6092489;23;20422;-55
2023/01/04 09:05:43;;;;;;;2.60;2.07;;;7.10;99.90;;;;;;6092637;23;20409;-60
2023/01/04 09:08:10;;;;;;;5.90;2.60;;;7.10;99.90;;;;;;6092099;23;20396;-58
2023/01/04 09:10:38;;;;;;;3.60;2.10;;;7.10;99.90;;;;;;6088187;23;20459;-57
2023/01/04 09:13:06;;;;;;;2.63;2.40;;;7.10;99.90;;;;;;6090378;23;20499;-59
2023/01/04 09:15:34;;;;;;;2.20;1.73;;;7.10;99.90;;;;;;6093085;23;20401;-58
2023/01/04 09:18:01;;;;;;;2.80;2.20;;;7.10;99.90;;;;;;6092158;23;20444;-57
2023/01/04 09:20:29;;;;;;;2.13;1.93;;;7.10;99.90;;;;;;6093186;23;20500;-59
2023/01/04 09:22:57;;;;;;;4.60;2.03;;;7.10;99.90;;;;;;6093311;23;20432;-58
2023/01/04 09:25:24;;;;;;;4.50;2.37;;;7.10;99.90;;;;;;6092777;23;20405;-59
2023/01/04 09:27:51;;;;;;;5.60;3.27;;;7.10;99.90;;;;;;6092195;23;20408;-59
2023/01/04 09:30:20;;;;;;;4.70;2.60;;;7.10;99.90;;;;;;6082099;23;20428;-59
2023/01/04 09:32:47;;;;;;;6.10;2.73;;;7.10;99.90;;;;;;6092196;23;20429;-61
2023/01/04 09:35:14;;;;;;;3.80;2.50;;;7.20;99.90;;;;;;6093217;23;20440;-59
2023/01/04 09:37:41;;;;;;;5.10;2.40;;;7.20;99.90;;;;;;6094105;23;20408;-61
2023/01/04 09:40:19;;;;;;;3.30;2.43;;;7.20;99.90;;;;;;6092867;23;20417;-58
2023/01/04 09:42:46;;;;;;;5.50;3.03;;;7.20;99.90;;;;;;6092362;23;20396;-56
2023/01/04 09:45:20;;;;;;;3.83;3.10;;;7.20;99.90;;;;;;6092353;23;20400;-58
2023/01/04 09:47:51;;;;;;;3.40;2.67;;;7.20;99.90;;;;;;6093143;23;20405;-59
2023/01/04 09:50:22;;;;;;;8.33;2.90;;;7.20;99.90;;;;;;6092872;23;20417;-58
2023/01/04 09:53:05;;;;;;;3.17;2.30;;;7.30;99.90;;;;;;6093296;23;20377;-59
2023/01/04 09:55:36;;;;;;;4.20;2.70;;;7.20;99.90;;;;;;6089618;23;20519;-59
2023/01/04 09:58:06;;;;;;;5.27;2.60;;;7.30;99.90;;;;;;6092684;23;20492;-58
2023/01/04 10:00:39;;;;;;;7.70;3.07;;;7.30;99.90;;;;;;6092621;23;20401;-61
2023/01/04 10:03:13;;;;;;;5.87;3.00;;;7.30;99.90;;;;;;6089079;23;20428;-59
2023/01/04 10:05:40;;;;;;;7.77;3.00;;;7.30;99.90;;;;;;6086611;23;20381;-57
2023/01/04 10:08:14;;;;;;;4.53;2.57;;;7.30;99.90;;;;;;6094753;23;20423;-56
2023/01/04 10:10:51;;;;;;;4.50;2.63;;;7.30;99.90;;;;;;6094540;23;20511;-61
2023/01/04 10:13:32;;;;;;;2.73;2.50;;;7.30;99.90;;;;;;6094294;23;20412;-57
2023/01/04 10:16:13;;;;;;;6.97;3.07;;;7.30;99.90;;;;;;6088264;23;20404;-59
2023/01/04 10:18:51;;;;;;;4.17;2.50;;;7.30;99.90;;;;;;6092325;23;20432;-62
2023/01/04 10:21:28;;;;;;;2.33;1.83;;;7.40;99.90;;;;;;6093153;23;20365;-59
2023/01/04 10:24:10;;;;;;;6.90;2.40;;;7.40;99.90;;;;;;6092301;23;20428;-58
2023/01/04 10:26:45;;;;;;;5.13;2.67;;;7.40;99.90;;;;;;6092750;23;20412;-59
2023/01/04 10:29:28;;;;;;;3.80;1.87;;;7.40;99.90;;;;;;6091895;23;20428;-59
2023/01/04 10:32:01;;;;;;;4.43;2.30;;;7.30;99.90;;;;;;6093115;23;20425;-61
2023/01/04 10:34:31;;;;;;;5.60;3.10;;;7.30;99.90;;;;;;6088848;23;20408;-57
2023/01/04 10:37:00;;;;;;;5.10;3.13;;;7.30;99.90;;;;;;6087211;23;20425;-59
2023/01/04 10:39:31;;;;;;;4.70;2.53;;;7.40;99.90;;;;;;6092042;23;20432;-60
2023/01/04 10:42:00;;;;;;;8.40;2.50;;;7.30;99.90;;;;;;6091848;23;20427;-57
2023/01/04 10:44:41;;;;;;;3.33;2.43;;;7.40;99.90;;;;;;6091914;23;20428;-59
2023/01/04 10:47:14;;;;;;;5.23;2.80;;;7.40;99.90;;;;;;6092908;23;20397;-58
2023/01/04 10:49:48;;;;;;;3.03;2.33;;;7.40;99.90;;;;;;6093476;23;20930;-63
2023/01/04 10:52:18;;;;;;;4.43;2.63;;;7.40;99.90;;;;;;6093550;23;20383;-59
2023/01/04 10:54:49;;;;;;;7.57;3.50;;;7.40;99.90;;;;;;6093365;23;20425;-59
2023/01/04 10:57:26;;;;;;;7.63;3.47;;;7.50;99.90;;;;;;6092323;23;20380;-59
2023/01/04 10:59:59;;;;;;;2.43;2.23;;;7.50;99.90;;;;;;6084801;23;20423;-59
2023/01/04 11:02:37;;;;;;;4.17;2.50;;;7.50;99.90;;;;;;6092238;23;20435;-61
2023/01/04 11:05:14;;;;;;;5.83;3.10;;;7.50;99.90;;;;;;6091638;23;20962;-58
2023/01/04 11:07:48;;;;;;;2.60;2.40;;;7.50;99.90;;;;;;6092040;23;20393;-64
2023/01/04 11:10:18;;;;;;;7.30;2.80;;;7.60;99.90;;;;;;6091566;23;20467;-58
2023/01/04 11:12:48;;;;;;;3.70;2.23;;;7.50;99.90;;;;;;6091233;23;20393;-57
2023/01/04 11:15:15;;;;;;;3.30;2.40;;;7.50;99.90;;;;;;6091776;23;20407;-62
2023/01/04 11:17:48;;;;;;;5.40;2.63;;;7.50;99.90;;;;;;6091361;23;20385;-59
2023/01/04 11:20:18;;;;;;;2.33;2.13;;;7.60;99.90;;;;;;6092448;23;20394;-58
2023/01/04 11:22:53;;;;;;;4.70;2.40;;;7.60;99.90;;;;;;6085104;23;20444;-58
2023/01/04 11:25:22;;;;;;;3.00;2.20;;;7.70;99.90;;;;;;6086702;23;20452;-56
2023/01/04 11:27:56;;;;;;;3.30;2.50;;;7.70;99.90;;;;;;6092419;23;20420;-59
2023/01/04 11:30:28;;;;;;;3.63;2.60;;;7.70;99.90;;;;;;6092134;23;20405;-59
2023/01/04 11:33:02;;;;;;;2.40;1.80;;;7.70;99.90;;;;;;6092557;23;20426;-59
2023/01/04 11:35:44;;;;;;;2.30;1.73;;;7.80;99.90;;;;;;6093407;23;20381;-61
2023/01/04 11:38:15;;;;;;;5.27;2.97;;;7.80;99.90;;;;;;6092645;23;20595;-62
2023/01/04 11:40:53;;;;;;;3.40;2.63;;;7.80;99.90;;;;;;6079206;23;20431;-57
2023/01/04 11:43:21;;;;;;;7.50;2.87;;;7.90;99.90;;;;;;6067024;23;20432;-63
2023/01/04 11:46:04;;;;;;;5.67;3.27;;;7.90;99.90;;;;;;6093830;23;20867;-62
2023/01/04 11:48:35;;;;;;;4.60;2.60;;;7.90;99.90;;;;;;6094105;23;20403;-64
2023/01/04 11:51:03;;;;;;;2.67;2.07;;;8.00;99.90;;;;;;6093580;23;20431;-64
2023/01/04 11:53:35;;;;;;;3.90;2.43;;;8.00;99.90;;;;;;6094150;23;20400;-60
2023/01/04 11:56:15;;;;;;;2.60;2.03;;;8.00;99.90;;;;;;6095988;23;20428;-57
2023/01/04 11:58:43;;;;;;;3.80;2.43;;;8.00;99.90;;;;;;6095882;23;20389;-53
2023/01/04 12:01:21;;;;;;;3.47;2.40;;;8.10;99.90;;;;;;6096065;23;20420;-56
2023/01/04 12:03:53;;;;;;;5.50;2.50;;;8.10;99.90;;;;;;6096272;23;20399;-56
2023/01/04 12:06:24;;;;;;;4.07;2.40;;;8.10;99.90;;;;;;6095907;23;20491;-58
2023/01/04 12:08:51;;;;;;;2.53;2.00;;;8.20;99.90;;;;;;6097169;23;20412;-58
2023/01/04 12:11:24;;;;;;;5.20;2.23;;;8.20;99.90;;;;;;6091704;23;20448;-60
2023/01/04 12:13:51;;;;;;;3.00;2.47;;;8.20;99.90;;;;;;6087453;23;20438;-55
2023/01/04 12:16:32;;;;;;;2.20;1.83;;;8.20;99.90;;;;;;6097810;23;20392;-54
2023/01/04 12:19:00;;;;;;;2.17;1.90;;;8.30;99.90;;;;;;6097679;23;20389;-56
2023/01/04 12:21:28;;;;;;;2.70;2.50;;;8.30;99.90;;;;;;6096402;23;20449;-58
2023/01/04 12:24:01;;;;;;;3.70;1.60;;;8.30;99.90;;;;;;6097044;23;20420;-58
2023/01/04 12:26:51;;;;;;;1.77;1.57;;;8.30;99.90;;;;;;6096564;23;20384;-65
2023/01/04 12:29:44;;;;;;;3.03;2.10;;;8.40;99.90;;;;;;6096616;23;20418;-61
2023/01/04 12:32:43;;;;;;;3.07;1.93;;;8.40;99.90;;;;;;6097026;23;20370;-56
2023/01/04 12:36:08;;;;;;;2.43;1.90;;;8.30;99.90;;;;;;6093959;23;20409;-59
2023/01/04 12:39:27;;;;;;;2.47;1.33;;;8.40;99.90;;;;;;6094451;23;20369;-63
2023/01/04 12:42:22;;;;;;;4.00;1.57;;;8.40;99.90;;;;;;6096213;23;20392;-62
2023/01/04 12:45:17;;;;;;;6.20;2.73;;;8.40;99.90;;;;;;6095554;23;20412;-57
2023/01/04 12:50:31;;;;;;;1.80;1.70;;;8.30;99.90;;;;;;6094226;23;20416;-59
2023/01/04 12:53:04;;;;;;;2.60;1.90;;;8.30;99.90;;;;;;6093714;23;20372;-60
2023/01/04 12:56:02;;;;;;;3.80;1.97;;;8.30;99.90;;;;;;6093365;23;20408;-59
2023/01/04 12:59:05;;;;;;;2.90;2.00;;;8.30;99.90;;;;;;6094161;23;20416;-56
2023/01/04 13:01:33;;;;;;;3.03;2.20;;;8.30;99.90;;;;;;6093960;23;20392;-59
2023/01/04 13:04:03;;;;;;;1.77;1.67;;;8.30;99.90;;;;;;6093103;23;20399;-60
2023/01/04 13:06:33;;;;;;;2.23;1.53;;;8.30;99.90;;;;;;6093276;23;20419;-55
2023/01/04 13:09:01;;;;;;;2.03;1.83;;;8.30;99.90;;;;;;6094172;23;20400;-56
2023/01/04 13:12:08;;;;;;;2.30;1.90;;;8.30;99.90;;;;;;6094412;23;20480;-64
2023/01/04 13:14:40;;;;;;;2.80;2.27;;;8.30;99.90;;;;;;6065919;23;20416;-59
2023/01/04 13:17:17;;;;;;;4.53;2.27;;;8.30;99.90;;;;;;6092576;23;20384;-59
2023/01/04 13:19:44;;;;;;;8.00;2.00;;;8.30;99.90;;;;;;6093376;23;20462;-59
2023/01/04 13:22:18;;;;;;;3.30;1.90;;;8.30;99.90;;;;;;6093343;23;20408;-59
2023/01/04 13:24:47;;;;;;;4.20;2.30;;;8.30;99.90;;;;;;6092684;23;20427;-57
2023/01/04 13:27:18;;;;;;;1.40;1.30;;;8.30;99.90;;;;;;6093143;23;20419;-57
2023/01/04 13:29:56;;;;;;;4.50;2.10;;;8.30;99.90;;;;;;6093293;23;20437;-59
2023/01/04 13:32:25;;;;;;;2.67;1.97;;;8.30;99.90;;;;;;6093077;23;20456;-59
2023/01/04 13:34:54;;;;;;;4.17;2.27;;;8.30;99.90;;;;;;6093200;23;20413;-60
2023/01/04 13:37:31;;;;;;;7.20;3.30;;;8.30;99.90;;;;;;6094193;23;20447;-60
2023/01/04 13:40:16;;;;;;;3.40;1.93;;;8.40;99.90;;;;;;6094161;23;20393;-59
2023/01/04 13:42:46;;;;;;;1.73;1.63;;;8.40;99.90;;;;;;6093527;23;20448;-60
2023/01/04 13:45:43;;;;;;;2.90;2.27;;;8.40;99.90;;;;;;6093307;23;20377;-61
2023/01/04 13:48:12;;;;;;;2.30;2.10;;;8.40;99.90;;;;;;6093363;23;20440;-61
2023/01/04 13:50:45;;;;;;;2.83;2.03;;;8.40;99.90;;;;;;6093429;23;20452;-57
2023/01/04 13:53:21;;;;;;;10.20;3.60;;;8.50;99.90;;;;;;6093216;23;20432;-62
2023/01/04 13:55:53;;;;;;;2.20;2.00;;;8.50;99.90;;;;;;6093332;23;20481;-59
2023/01/04 13:58:23;;;;;;;2.87;2.57;;;8.50;99.90;;;;;;6094038;23;20430;-61
2023/01/04 14:00:54;;;;;;;6.03;2.57;;;8.50;99.90;;;;;;6092395;23;20432;-60
2023/01/04 14:03:32;;;;;;;2.03;1.77;;;8.50;99.90;;;;;;6092573;23;20451;-60
2023/01/04 14:06:13;;;;;;;6.87;2.10;;;8.50;99.90;;;;;;6092818;23;20389;-61
2023/01/04 14:08:42;;;;;;;3.40;2.77;;;8.50;99.90;;;;;;6093285;23;20399;-60
2023/01/04 14:11:57;;;;;;;2.93;2.10;;;8.50;99.90;;;;;;6092874;23;20424;-57
2023/01/04 14:14:19;;;;;;;2.90;2.03;;;8.50;99.90;;;;;;6092109;23;20475;-58
2023/01/04 14:16:46;;;;;;;2.37;1.80;;;8.50;99.90;;;;;;6092707;23;20401;-59